Time;durP1;ratioP1;P1;durP2;ratioP2;P2;SDS_P1;SDS_P2;PMS_P1;PMS_P2;Temp;Humidity;BMP_temperature;BMP_pressure;BME280_temperature;BME280_humidity;BME280_pressure;Samples;Min_cycle;Max_cycle;Signal;HPM_P1;HPM_P2
2022/08/17 00:03:03;;;;;;;8.27;2.53;;;20.90;76.20;;;;;;6313971;28;20048;-80
2022/08/17 00:06:10;;;;;;;4.72;2.90;;;20.90;76.30;;;;;;6307151;28;20070;-79
2022/08/17 00:09:12;;;;;;;4.22;2.75;;;20.90;76.50;;;;;;6306923;28;20071;-80
2022/08/17 00:12:14;;;;;;;4.18;3.28;;;20.80;76.50;;;;;;6308705;28;20063;-81
2022/08/17 00:15:17;;;;;;;7.28;3.20;;;20.80;76.80;;;;;;6333343;28;20452;-80
2022/08/17 00:18:20;;;;;;;3.13;2.60;;;20.80;77.10;;;;;;6331281;28;20052;-81
2022/08/17 00:21:22;;;;;;;6.38;3.25;;;20.80;77.30;;;;;;6331452;28;20055;-79
2022/08/17 00:24:24;;;;;;;3.42;2.80;;;20.80;77.20;;;;;;6331283;28;20054;-80
2022/08/17 00:27:26;;;;;;;5.93;3.30;;;20.80;77.30;;;;;;6331411;28;20421;-78
2022/08/17 00:30:28;;;;;;;6.20;2.72;;;20.70;77.40;;;;;;6330413;28;20250;-80
2022/08/17 00:33:32;;;;;;;3.90;3.05;;;20.70;77.70;;;;;;6331450;28;20494;-80
2022/08/17 00:36:33;;;;;;;4.15;2.80;;;20.70;77.60;;;;;;6331003;28;20189;-80
2022/08/17 00:39:35;;;;;;;5.13;3.08;;;20.70;77.90;;;;;;6331965;28;20040;-81
2022/08/17 00:42:38;;;;;;;4.22;2.80;;;20.70;78.10;;;;;;6331010;28;20495;-79
2022/08/17 00:45:39;;;;;;;5.05;3.25;;;20.70;78.50;;;;;;6331997;28;20058;-80
2022/08/17 00:48:43;;;;;;;4.93;3.10;;;20.60;78.70;;;;;;6331103;28;20050;-79
2022/08/17 00:51:49;;;;;;;3.40;3.08;;;20.50;78.70;;;;;;6330203;28;20044;-79
2022/08/17 00:54:54;;;;;;;5.28;2.90;;;20.50;79.10;;;;;;6331390;28;20051;-80
2022/08/17 00:57:59;;;;;;;5.35;2.97;;;20.40;79.30;;;;;;6330228;28;20048;-81
2022/08/17 01:01:01;;;;;;;11.32;3.25;;;20.40;79.60;;;;;;6331165;28;20055;-79
2022/08/17 01:04:05;;;;;;;5.05;3.65;;;20.50;79.80;;;;;;6331324;28;20044;-80
2022/08/17 01:07:09;;;;;;;6.28;2.92;;;20.50;79.90;;;;;;6330892;28;20048;-81
2022/08/17 01:10:12;;;;;;;6.30;3.78;;;20.60;79.90;;;;;;6330340;28;20072;-79
2022/08/17 01:13:15;;;;;;;4.70;2.72;;;20.60;79.70;;;;;;6330680;28;20040;-80
2022/08/17 01:16:20;;;;;;;5.25;4.10;;;20.60;80.00;;;;;;6329904;28;20054;-80
2022/08/17 01:19:27;;;;;;;6.43;4.03;;;20.70;80.50;;;;;;6329940;28;20559;-80
2022/08/17 01:22:31;;;;;;;10.55;4.82;;;20.70;79.90;;;;;;6331085;28;20423;-80
2022/08/17 01:25:33;;;;;;;9.02;4.00;;;20.70;80.10;;;;;;6329733;28;20059;-79
2022/08/17 01:28:35;;;;;;;9.65;4.53;;;20.60;80.30;;;;;;6330241;28;20090;-79
2022/08/17 01:31:41;;;;;;;8.00;4.95;;;20.60;80.10;;;;;;6329556;28;20054;-80
2022/08/17 01:34:43;;;;;;;8.80;5.28;;;20.60;80.40;;;;;;6328262;28;20407;-79
2022/08/17 01:37:46;;;;;;;5.80;3.17;;;20.50;80.50;;;;;;6328288;28;20044;-80
2022/08/17 01:40:53;;;;;;;7.25;3.72;;;20.60;80.50;;;;;;6329066;28;20040;-80
2022/08/17 01:43:58;;;;;;;7.90;3.80;;;20.50;80.50;;;;;;6329535;28;20044;-79
2022/08/17 01:47:00;;;;;;;5.72;3.80;;;20.50;80.40;;;;;;6327790;28;20052;-79
2022/08/17 01:50:07;;;;;;;5.80;3.83;;;20.30;81.10;;;;;;6328131;28;20047;-79
2022/08/17 01:53:15;;;;;;;5.97;4.00;;;20.40;80.70;;;;;;6328250;28;20048;-80
2022/08/17 01:56:20;;;;;;;6.35;3.58;;;20.40;81.00;;;;;;6328568;28;20063;-80
2022/08/17 01:59:22;;;;;;;6.78;4.03;;;20.40;80.80;;;;;;6328662;28;20123;-80
2022/08/17 02:02:24;;;;;;;5.43;3.80;;;20.30;81.00;;;;;;6328859;28;20051;-78
2022/08/17 02:05:26;;;;;;;3.90;3.20;;;20.30;81.30;;;;;;6328803;28;20048;-80
2022/08/17 02:08:32;;;;;;;5.20;3.15;;;20.20;81.60;;;;;;6329238;28;20047;-80
2022/08/17 02:11:37;;;;;;;5.15;4.35;;;20.10;81.80;;;;;;6328209;28;20107;-79
2022/08/17 02:14:38;;;;;;;5.43;3.70;;;20.00;82.20;;;;;;6327972;28;20089;-80
2022/08/17 02:17:40;;;;;;;5.35;3.83;;;19.90;82.60;;;;;;6327929;28;20048;-79
2022/08/17 02:20:42;;;;;;;5.82;3.70;;;19.90;83.10;;;;;;6328213;28;20048;-79
2022/08/17 02:23:48;;;;;;;9.93;3.92;;;19.90;83.30;;;;;;6328355;28;20040;-79
2022/08/17 02:26:50;;;;;;;5.47;3.97;;;19.80;83.60;;;;;;6328122;28;20047;-80
2022/08/17 02:29:52;;;;;;;8.13;3.95;;;19.90;83.50;;;;;;6327935;28;20513;-78
2022/08/17 02:32:54;;;;;;;8.35;3.75;;;19.90;83.60;;;;;;6328384;28;20513;-77
2022/08/17 02:35:56;;;;;;;5.65;3.72;;;19.90;83.60;;;;;;6327585;28;20418;-79
2022/08/17 02:39:00;;;;;;;5.18;3.50;;;19.90;83.60;;;;;;6326507;28;20052;-80
2022/08/17 02:42:03;;;;;;;5.65;3.67;;;19.90;83.70;;;;;;6325927;28;20051;-79
2022/08/17 02:45:09;;;;;;;5.65;3.60;;;19.90;83.50;;;;;;6327082;28;20499;-78
2022/08/17 02:48:11;;;;;;;7.57;3.80;;;20.00;83.60;;;;;;6326185;28;20120;-78
2022/08/17 02:51:13;;;;;;;12.15;3.83;;;20.00;83.70;;;;;;6327544;28;20048;-80
2022/08/17 02:54:16;;;;;;;4.90;3.47;;;20.00;83.60;;;;;;6327240;28;20040;-78
2022/08/17 02:57:18;;;;;;;6.28;3.63;;;19.90;84.10;;;;;;6327912;28;20052;-77
2022/08/17 03:00:23;;;;;;;9.27;4.35;;;19.80;84.70;;;;;;6329649;28;20055;-79
2022/08/17 03:03:24;;;;;;;8.35;4.30;;;19.70;85.50;;;;;;6329637;28;20055;-78
2022/08/17 03:06:27;;;;;;;4.53;3.75;;;19.60;86.10;;;;;;6327418;28;20534;-77
2022/08/17 03:09:31;;;;;;;5.38;3.90;;;19.60;86.30;;;;;;6327642;28;20402;-79
2022/08/17 03:12:36;;;;;;;8.10;3.97;;;19.60;86.20;;;;;;6328001;28;20051;-79
2022/08/17 03:15:39;;;;;;;6.65;3.42;;;19.70;86.00;;;;;;6327646;28;20047;-81
2022/08/17 03:18:41;;;;;;;5.10;3.35;;;19.80;85.60;;;;;;6327201;28;20059;-80
2022/08/17 03:21:43;;;;;;;10.38;4.82;;;20.00;85.00;;;;;;6327083;28;20130;-80
2022/08/17 03:24:46;;;;;;;9.23;4.60;;;20.00;85.00;;;;;;6327836;28;20051;-82
2022/08/17 03:27:48;;;;;;;5.18;4.45;;;20.00;85.70;;;;;;6327145;28;20517;-79
2022/08/17 03:30:50;;;;;;;7.88;3.90;;;20.00;87.00;;;;;;6328119;28;20048;-79
2022/08/17 03:33:52;;;;;;;6.10;4.20;;;20.00;87.60;;;;;;6325267;28;20049;-80
2022/08/17 03:36:54;;;;;;;5.68;4.53;;;20.00;87.80;;;;;;6321775;28;20058;-79
2022/08/17 03:39:57;;;;;;;6.07;4.38;;;20.10;88.10;;;;;;6321768;28;20056;-79
2022/08/17 03:43:04;;;;;;;6.55;4.65;;;20.20;88.40;;;;;;6322035;28;20395;-80
2022/08/17 03:59:25;;;;;;;8.32;4.95;;;20.40;89.50;;;;;;6322795;28;20081;-78
2022/08/17 04:02:29;;;;;;;6.97;5.00;;;20.40;89.80;;;;;;6323134;28;20522;-80
2022/08/17 04:05:30;;;;;;;6.28;5.00;;;20.30;90.00;;;;;;6322690;28;20044;-82
2022/08/17 04:08:32;;;;;;;10.77;5.05;;;20.30;90.10;;;;;;6321762;28;20414;-77
2022/08/17 04:11:37;;;;;;;6.53;3.90;;;20.30;90.20;;;;;;6322539;28;20049;-79
2022/08/17 04:14:38;;;;;;;8.20;4.80;;;20.30;90.20;;;;;;6322632;28;20048;-81
2022/08/17 04:17:40;;;;;;;7.47;4.57;;;20.40;90.10;;;;;;6322879;28;20091;-79
2022/08/17 04:20:42;;;;;;;10.68;4.88;;;20.50;90.00;;;;;;6322579;28;20083;-77
2022/08/17 04:23:45;;;;;;;7.88;5.57;;;20.70;89.70;;;;;;6324275;28;20054;-81
2022/08/17 04:26:48;;;;;;;10.10;5.05;;;20.80;89.20;;;;;;6331669;28;20059;-81
2022/08/17 04:29:49;;;;;;;6.60;4.00;;;20.90;88.70;;;;;;6332635;28;20426;-80
2022/08/17 04:32:54;;;;;;;6.85;4.63;;;21.00;88.30;;;;;;6331799;28;20048;-80
2022/08/17 04:35:58;;;;;;;6.75;5.25;;;21.10;87.90;;;;;;6331570;28;20046;-79
2022/08/17 04:39:01;;;;;;;9.75;5.00;;;21.20;87.60;;;;;;6332382;28;20560;-79
2022/08/17 04:42:15;;;;;;;9.50;3.85;;;21.20;87.40;;;;;;6331801;28;20043;-80
2022/08/17 04:45:17;;;;;;;9.35;4.72;;;21.30;87.20;;;;;;6331544;28;20048;-81
2022/08/17 04:48:19;;;;;;;10.95;4.78;;;21.50;86.90;;;;;;6330885;28;20048;-79
2022/08/17 04:51:24;;;;;;;5.93;4.70;;;21.60;86.60;;;;;;6331225;28;20055;-80
2022/08/17 04:54:26;;;;;;;7.15;4.43;;;21.70;86.10;;;;;;6330130;28;20044;-80
2022/08/17 04:57:30;;;;;;;6.28;4.55;;;21.80;85.70;;;;;;6329392;28;20056;-81
2022/08/17 05:00:32;;;;;;;4.95;4.13;;;21.90;85.10;;;;;;6330062;28;20044;-79
2022/08/17 05:03:34;;;;;;;6.20;4.43;;;22.00;84.60;;;;;;6328362;28;20421;-81
2022/08/17 05:06:35;;;;;;;9.07;4.72;;;22.00;84.30;;;;;;6327123;28;20059;-79
2022/08/17 05:09:37;;;;;;;5.15;3.83;;;22.20;83.80;;;;;;6326066;28;20040;-79
2022/08/17 05:12:40;;;;;;;7.05;3.95;;;22.40;83.00;;;;;;6325935;28;20515;-79
2022/08/17 05:15:43;;;;;;;6.03;3.67;;;22.50;82.50;;;;;;6326272;28;20165;-79
2022/08/17 05:18:46;;;;;;;6.40;4.32;;;22.70;81.60;;;;;;6326498;28;20052;-80
2022/08/17 05:21:49;;;;;;;8.73;4.32;;;22.80;81.10;;;;;;6325979;28;20036;-81
2022/08/17 05:24:50;;;;;;;7.55;3.70;;;22.90;80.60;;;;;;6326052;28;20060;-80
2022/08/17 05:27:54;;;;;;;13.02;4.68;;;23.00;80.00;;;;;;6326810;28;20056;-80
2022/08/17 05:30:58;;;;;;;11.43;4.60;;;23.10;79.50;;;;;;6329453;28;20418;-80
2022/08/17 05:34:00;;;;;;;6.55;4.32;;;23.20;79.30;;;;;;6326855;28;20048;-79
2022/08/17 05:37:02;;;;;;;6.07;4.35;;;23.30;78.80;;;;;;6325483;28;20048;-80
2022/08/17 05:40:05;;;;;;;11.75;4.50;;;23.50;78.10;;;;;;6326290;28;20044;-80
2022/08/17 05:43:10;;;;;;;5.60;4.13;;;23.60;77.60;;;;;;6326446;28;20422;-79
2022/08/17 05:46:18;;;;;;;6.18;4.50;;;23.70;77.10;;;;;;6325995;28;20514;-79
2022/08/17 05:49:26;;;;;;;6.22;4.10;;;23.80;76.70;;;;;;6325785;28;20128;-79
2022/08/17 05:52:32;;;;;;;;;;;24.00;76.10;;;;;;6326208;28;20503;-80
2022/08/17 05:55:45;;;;;;;8.90;4.57;;;24.20;75.70;;;;;;6297918;22;19933;-77
2022/08/17 05:59:00;;;;;;;5.30;3.80;;;24.60;74.30;;;;;;6273144;28;20052;-78
2022/08/17 06:02:08;;;;;;;8.52;4.32;;;25.00;73.10;;;;;;6272559;28;20041;-78
2022/08/17 06:05:18;;;;;;;10.50;5.30;;;25.30;72.10;;;;;;6272406;28;20067;-78
2022/08/17 06:08:29;;;;;;;8.80;3.88;;;25.30;71.50;;;;;;6272280;28;20056;-80
2022/08/17 06:11:39;;;;;;;11.35;4.45;;;25.10;71.60;;;;;;6272531;28;20055;-78
2022/08/17 06:14:59;;;;;;;10.13;6.57;;;25.00;72.00;;;;;;6272884;28;20052;-77
2022/08/17 06:18:05;;;;;;;7.90;4.07;;;24.80;72.80;;;;;;6272005;28;20795;-77
2022/08/17 06:21:11;;;;;;;7.25;4.43;;;24.70;74.10;;;;;;6272373;28;20416;-79
2022/08/17 06:24:24;;;;;;;11.68;5.13;;;24.60;76.20;;;;;;6272376;28;20056;-78
2022/08/17 06:27:34;;;;;;;11.07;5.10;;;24.40;77.80;;;;;;6272214;28;20060;-78
2022/08/17 06:30:45;;;;;;;9.48;6.00;;;24.20;80.20;;;;;;6272181;28;20408;-78
2022/08/17 06:33:47;;;;;;;10.48;5.10;;;24.10;82.00;;;;;;6272066;28;20041;-78
2022/08/17 06:36:56;;;;;;;7.90;5.07;;;23.90;82.50;;;;;;6271896;28;20415;-79
2022/08/17 06:40:09;;;;;;;9.18;5.03;;;23.90;83.00;;;;;;6272268;28;20041;-78
2022/08/17 06:43:25;;;;;;;7.40;5.05;;;23.80;83.10;;;;;;6272642;28;20045;-78
2022/08/17 06:46:34;;;;;;;7.47;6.30;;;23.80;83.50;;;;;;6272228;28;20045;-78
2022/08/17 06:49:43;;;;;;;14.15;6.95;;;23.70;84.60;;;;;;6270713;28;20053;-77
2022/08/17 06:52:52;;;;;;;19.02;6.70;;;23.60;86.40;;;;;;6271838;28;20041;-77
2022/08/17 06:56:00;;;;;;;7.05;5.05;;;23.40;88.10;;;;;;6271201;28;20037;-79
2022/08/17 06:59:02;;;;;;;7.45;5.05;;;23.00;88.70;;;;;;6271810;28;20053;-77
2022/08/17 07:02:08;;;;;;;11.13;5.88;;;22.90;89.80;;;;;;6271600;28;20041;-77
2022/08/17 07:05:11;;;;;;;6.95;6.20;;;22.90;90.30;;;;;;6271448;28;20056;-79
2022/08/17 07:08:18;;;;;;;10.75;5.38;;;22.90;90.50;;;;;;6271108;28;20056;-78
2022/08/17 07:11:26;;;;;;;15.73;5.80;;;22.90;90.70;;;;;;6271209;28;20049;-80
2022/08/17 07:14:35;;;;;;;;;;;23.10;90.70;;;;;;6272311;28;20057;-79
2022/08/17 07:17:39;;;;;;;8.50;6.05;;;23.00;90.90;;;;;;6270825;28;20291;-79
2022/08/17 07:20:46;;;;;;;8.15;6.22;;;22.90;91.20;;;;;;6271091;28;20056;-78
2022/08/17 07:24:00;;;;;;;10.47;6.87;;;23.00;91.70;;;;;;6270986;28;20504;-78
2022/08/17 07:27:06;;;;;;;6.35;5.47;;;23.10;92.00;;;;;;6271573;28;20056;-77
2022/08/17 07:30:10;;;;;;;10.00;5.03;;;23.40;91.60;;;;;;6270842;28;20083;-77
2022/08/17 07:33:18;;;;;;;7.60;5.60;;;23.70;91.10;;;;;;6270960;28;20048;-78
2022/08/17 07:36:25;;;;;;;9.82;5.22;;;24.00;90.20;;;;;;6271110;28;20057;-77
2022/08/17 07:39:27;;;;;;;9.13;4.97;;;24.00;89.00;;;;;;6271154;28;20407;-77
2022/08/17 07:42:29;;;;;;;10.32;5.07;;;23.90;89.50;;;;;;6246190;28;20080;-78
2022/08/17 07:49:35;;;;;;;8.23;5.60;;;23.90;89.50;;;;;;6177981;28;20122;-77
2022/08/17 07:52:37;;;;;;;11.07;5.57;;;23.60;91.70;;;;;;6178390;28;20054;-77
2022/08/17 07:55:40;;;;;;;7.53;5.75;;;23.30;92.70;;;;;;6264330;28;20515;-77
2022/08/17 07:58:42;;;;;;;9.98;5.40;;;23.10;94.00;;;;;;6270467;28;20500;-76
2022/08/17 08:01:47;;;;;;;7.13;5.78;;;22.80;95.50;;;;;;6273548;28;20072;-76
2022/08/17 08:05:00;;;;;;;13.13;6.22;;;22.50;96.20;;;;;;6274419;28;20080;-77
2022/08/17 08:08:19;;;;;;;14.15;6.30;;;22.30;96.60;;;;;;6275145;28;20401;-76
2022/08/17 08:11:29;;;;;;;;;;;22.10;97.40;;;;;;6276091;28;20044;-78
2022/08/17 08:14:34;;;;;;;8.45;5.85;;;22.00;97.80;;;;;;6276128;28;19920;-77
2022/08/17 08:17:46;;;;;;;10.05;6.25;;;21.80;97.90;;;;;;6275335;28;20724;-76
2022/08/17 08:20:54;;;;;;;11.88;6.55;;;21.60;98.70;;;;;;6275142;28;20506;-77
2022/08/17 08:23:59;;;;;;;;;;;21.60;98.60;;;;;;6275691;28;20049;-77
2022/08/17 08:27:11;;;;;;;8.43;6.05;;;21.50;99.10;;;;;;6275736;28;20401;-76
2022/08/17 08:30:15;;;;;;;9.20;5.30;;;21.60;98.60;;;;;;6274804;28;20049;-77
2022/08/17 08:33:31;;;;;;;9.10;5.35;;;21.60;97.80;;;;;;6274882;28;20045;-77
2022/08/17 08:36:46;;;;;;;5.43;4.93;;;21.80;97.30;;;;;;6275131;28;20071;-76
2022/08/17 08:39:55;;;;;;;11.13;4.88;;;21.90;96.80;;;;;;6274944;28;20531;-76
2022/08/17 08:43:07;;;;;;;8.68;5.22;;;22.00;96.80;;;;;;6275187;28;20404;-77
2022/08/17 08:46:27;;;;;;;9.65;5.13;;;22.10;96.60;;;;;;6274837;28;20527;-77
2022/08/17 08:49:59;;;;;;;6.68;4.18;;;22.30;96.60;;;;;;6274618;28;20052;-78
2022/08/17 08:53:22;;;;;;;7.72;4.18;;;22.60;96.70;;;;;;6274101;28;20428;-77
2022/08/17 08:56:33;;;;;;;8.50;3.88;;;22.80;95.60;;;;;;6273206;28;20068;-78
2022/08/17 08:59:43;;;;;;;7.28;4.05;;;23.00;94.10;;;;;;6274471;28;20098;-77
2022/08/17 09:03:11;;;;;;;5.22;3.70;;;23.10;94.50;;;;;;6275183;28;20048;-77
2022/08/17 09:06:30;;;;;;;6.78;4.18;;;23.20;94.60;;;;;;6274205;28;20067;-79
2022/08/17 09:09:46;;;;;;;9.27;4.03;;;23.30;94.40;;;;;;6274850;28;20041;-77
2022/08/17 09:12:58;;;;;;;7.70;4.53;;;23.40;94.40;;;;;;6273373;28;20045;-78
2022/08/17 09:16:04;;;;;;;11.02;4.80;;;23.50;94.60;;;;;;6255259;28;20045;-79
2022/08/17 09:19:14;;;;;;;13.52;5.35;;;23.60;94.90;;;;;;6271365;28;20105;-77
2022/08/17 09:22:25;;;;;;;6.60;5.07;;;23.60;95.40;;;;;;6270630;28;20044;-77
2022/08/17 09:25:32;;;;;;;12.95;6.70;;;23.60;95.80;;;;;;6272547;28;20045;-77
2022/08/17 09:28:36;;;;;;;8.93;6.28;;;23.50;96.20;;;;;;6273207;28;20041;-80
2022/08/17 09:31:46;;;;;;;7.78;6.03;;;23.40;96.60;;;;;;6273071;28;20191;-77
2022/08/17 09:34:53;;;;;;;11.68;6.22;;;23.40;96.80;;;;;;6274121;28;20146;-76
2022/08/17 09:38:01;;;;;;;7.57;6.77;;;23.30;96.60;;;;;;6273229;28;20519;-79
2022/08/17 09:41:09;;;;;;;;;;;23.30;96.50;;;;;;6273783;28;20371;-76
2022/08/17 09:44:21;;;;;;;8.20;6.25;;;23.40;96.20;;;;;;6273012;28;19920;-79
2022/08/17 09:47:29;;;;;;;9.88;5.97;;;23.50;95.90;;;;;;6272992;28;20045;-77
2022/08/17 09:50:38;;;;;;;11.07;7.07;;;23.40;95.80;;;;;;6273318;28;20415;-80
2022/08/17 09:53:41;;;;;;;10.52;7.00;;;23.50;96.10;;;;;;6272733;28;20167;-76
2022/08/17 09:56:51;;;;;;;10.50;7.35;;;23.50;95.80;;;;;;6272749;28;20048;-76
2022/08/17 10:00:14;;;;;;;12.32;6.93;;;23.40;95.80;;;;;;6272791;28;20052;-78
2022/08/17 10:03:28;;;;;;;9.48;6.85;;;23.40;96.00;;;;;;6273231;28;20052;-77
2022/08/17 10:06:33;;;;;;;10.70;6.47;;;23.40;96.00;;;;;;6273157;28;20060;-78
2022/08/17 10:09:44;;;;;;;8.70;6.13;;;23.50;96.10;;;;;;6275719;28;20068;-77
2022/08/17 10:12:54;;;;;;;9.00;6.75;;;23.60;96.00;;;;;;6272888;28;20056;-79
2022/08/17 10:16:03;;;;;;;11.13;6.93;;;23.80;96.00;;;;;;6272726;28;20041;-79
2022/08/17 10:19:15;;;;;;;9.43;6.03;;;24.30;95.90;;;;;;6272431;28;20511;-78
2022/08/17 10:29:15;;;;;;;6.70;5.07;;;26.30;90.40;;;;;;6271784;28;20041;-78
2022/08/17 10:32:26;;;;;;;9.07;4.82;;;26.70;89.70;;;;;;6272108;28;20415;-78
2022/08/17 10:35:36;;;;;;;5.63;4.45;;;27.30;86.00;;;;;;6271798;28;20515;-77
2022/08/17 10:38:45;;;;;;;6.53;4.90;;;27.50;83.90;;;;;;6272084;28;20412;-77
2022/08/17 10:41:52;;;;;;;5.68;4.93;;;27.30;82.30;;;;;;6271727;28;20416;-78
2022/08/17 10:45:01;;;;;;;6.13;4.80;;;27.10;81.40;;;;;;6271645;28;20053;-78
2022/08/17 10:48:25;;;;;;;7.13;4.47;;;26.70;82.50;;;;;;6271639;28;20524;-81
2022/08/17 10:51:36;;;;;;;8.20;4.07;;;26.60;83.20;;;;;;6271246;28;20060;-79
2022/08/17 10:54:45;;;;;;;5.30;3.88;;;26.50;83.80;;;;;;6271971;28;20134;-77
2022/08/17 10:57:49;;;;;;;6.75;4.38;;;26.50;83.50;;;;;;6270777;28;20045;-77
2022/08/17 11:01:02;;;;;;;6.68;3.67;;;26.50;82.00;;;;;;6268170;28;20047;-80
2022/08/17 11:04:20;;;;;;;2.95;2.58;;;26.90;81.10;;;;;;6245983;28;20048;-79
2022/08/17 11:07:38;;;;;;;4.90;2.92;;;27.30;78.70;;;;;;6248205;28;20096;-77
2022/08/17 11:10:57;;;;;;;10.63;2.83;;;27.50;76.20;;;;;;6270924;28;20060;-80
2022/08/17 11:14:16;;;;;;;2.35;2.13;;;27.40;75.20;;;;;;6246268;28;20049;-77
2022/08/17 11:17:42;;;;;;;4.90;2.28;;;27.30;74.60;;;;;;6266724;28;20049;-78
2022/08/17 11:21:17;;;;;;;3.17;2.50;;;27.30;74.80;;;;;;6252520;28;20397;-77
2022/08/17 11:24:22;;;;;;;3.75;2.88;;;27.30;74.90;;;;;;6270915;28;20420;-80
2022/08/17 11:27:28;;;;;;;12.15;3.13;;;27.60;73.50;;;;;;6269139;28;20045;-78
2022/08/17 11:30:49;;;;;;;3.78;2.25;;;27.80;72.60;;;;;;6272130;28;20053;-79
2022/08/17 11:33:57;;;;;;;4.50;2.38;;;28.30;70.90;;;;;;6270905;28;20049;-78
2022/08/17 11:37:32;;;;;;;2.60;1.67;;;28.80;68.70;;;;;;6269727;28;20048;-81
2022/08/17 11:40:59;;;;;;;4.25;2.47;;;29.30;65.30;;;;;;6270501;28;20048;-78
2022/08/17 11:44:14;;;;;;;2.20;1.80;;;29.60;64.50;;;;;;6270584;28;20052;-77
2022/08/17 11:54:39;;;;;;;5.72;2.60;;;30.20;62.50;;;;;;6272163;28;20050;-81
2022/08/17 11:58:06;;;;;;;5.83;2.53;;;30.30;62.10;;;;;;6276033;28;20044;-81
2022/08/17 12:01:10;;;;;;;3.65;2.35;;;30.30;62.60;;;;;;6277550;28;20052;-81
2022/08/17 12:04:24;;;;;;;5.70;2.45;;;30.30;62.00;;;;;;6274923;28;20045;-81
2022/08/17 12:07:28;;;;;;;3.47;2.20;;;30.20;61.40;;;;;;6275288;28;20045;-81
2022/08/17 12:10:33;;;;;;;4.53;2.28;;;29.90;61.40;;;;;;6275712;28;20057;-79
2022/08/17 12:13:42;;;;;;;3.40;2.20;;;29.60;62.40;;;;;;6274681;28;20037;-79
2022/08/17 12:16:44;;;;;;;2.78;2.38;;;29.40;62.80;;;;;;6274625;28;20071;-82
2022/08/17 12:19:45;;;;;;;3.80;2.10;;;29.50;63.00;;;;;;6275475;28;20048;-82
2022/08/17 12:22:56;;;;;;;5.68;2.92;;;29.60;62.90;;;;;;6275113;28;20132;-82
2022/08/17 12:26:04;;;;;;;4.47;2.38;;;29.70;62.20;;;;;;6273463;28;20111;-80
2022/08/17 12:29:13;;;;;;;5.70;2.38;;;30.00;61.60;;;;;;6275987;28;20048;-81
2022/08/17 12:32:18;;;;;;;8.00;2.40;;;30.10;60.80;;;;;;6276017;28;20051;-81
2022/08/17 12:35:31;;;;;;;3.65;2.15;;;30.60;60.00;;;;;;6277410;28;20498;-80
2022/08/17 12:38:37;;;;;;;4.38;2.05;;;31.10;59.40;;;;;;6276559;28;20158;-81
2022/08/17 12:41:42;;;;;;;7.05;2.70;;;31.60;57.60;;;;;;6275007;28;20055;-81
2022/08/17 12:44:44;;;;;;;4.07;2.47;;;32.00;56.70;;;;;;6274148;28;20045;-81
2022/08/17 12:47:46;;;;;;;5.60;1.92;;;32.50;54.70;;;;;;6276414;28;20037;-81
2022/08/17 12:50:49;;;;;;;2.85;1.73;;;33.10;54.00;;;;;;6282212;28;20048;-81
2022/08/17 12:53:55;;;;;;;3.65;1.83;;;33.70;52.10;;;;;;6282024;28;20056;-81
2022/08/17 12:57:00;;;;;;;4.20;1.90;;;34.10;50.40;;;;;;6280327;28;20053;-76
2022/08/17 13:00:09;;;;;;;3.05;1.45;;;34.50;50.30;;;;;;6279217;28;20045;-77
2022/08/17 13:03:15;;;;;;;2.67;1.50;;;34.90;48.60;;;;;;6278765;28;20064;-77
2022/08/17 13:06:27;;;;;;;2.75;1.70;;;35.20;47.50;;;;;;6278592;28;20041;-78
2022/08/17 13:09:30;;;;;;;3.03;1.70;;;35.50;46.00;;;;;;6278817;28;20048;-76
2022/08/17 13:12:34;;;;;;;6.75;1.70;;;35.70;46.10;;;;;;6278431;28;20140;-78
2022/08/17 13:15:40;;;;;;;2.30;1.70;;;35.90;45.90;;;;;;6279115;28;20049;-78
2022/08/17 13:18:46;;;;;;;2.92;1.52;;;36.00;44.50;;;;;;6279432;28;20056;-78
2022/08/17 13:21:50;;;;;;;5.20;1.75;;;36.00;44.60;;;;;;6279167;28;20056;-78
2022/08/17 13:24:55;;;;;;;6.28;1.58;;;35.90;44.30;;;;;;6278887;28;20081;-78
2022/08/17 13:27:57;;;;;;;2.45;1.42;;;36.00;44.30;;;;;;6279305;28;20316;-78
2022/08/17 13:31:22;;;;;;;2.30;1.35;;;36.00;44.20;;;;;;6285634;28;20055;-78
2022/08/17 13:34:38;;;;;;;3.42;1.35;;;35.90;44.60;;;;;;6282070;28;20122;-77
2022/08/17 13:37:40;;;;;;;4.50;1.63;;;35.90;43.50;;;;;;6277337;28;20045;-78
2022/08/17 13:40:49;;;;;;;4.13;2.08;;;35.80;43.20;;;;;;6280019;28;20045;-79
2022/08/17 13:43:50;;;;;;;4.93;1.58;;;35.70;43.60;;;;;;6279971;28;20057;-79
2022/08/17 13:46:52;;;;;;;5.05;1.52;;;35.70;42.80;;;;;;6280885;28;20101;-79
2022/08/17 13:49:55;;;;;;;2.53;1.42;;;35.70;42.50;;;;;;6279189;28;20432;-79
2022/08/17 13:52:57;;;;;;;3.75;1.50;;;35.70;41.20;;;;;;6280461;28;20056;-77
2022/08/17 13:56:06;;;;;;;2.30;1.60;;;35.70;40.50;;;;;;6281034;28;20045;-79
2022/08/17 13:59:11;;;;;;;2.22;1.20;;;35.70;40.10;;;;;;6278706;28;20649;-79
2022/08/17 14:02:14;;;;;;;7.95;2.30;;;35.60;40.20;;;;;;6280007;28;20053;-79
2022/08/17 14:05:16;;;;;;;6.82;1.92;;;35.50;40.70;;;;;;6276836;28;20504;-79
2022/08/17 14:08:19;;;;;;;5.95;2.15;;;35.40;40.50;;;;;;6276904;28;20059;-79
2022/08/17 14:11:23;;;;;;;2.42;1.50;;;35.40;41.00;;;;;;6279303;28;20140;-79
2022/08/17 14:14:26;;;;;;;2.65;1.35;;;35.40;40.70;;;;;;6278441;28;20052;-79
2022/08/17 14:17:30;;;;;;;2.90;1.40;;;35.60;40.10;;;;;;6279547;28;20401;-79
2022/08/17 14:20:33;;;;;;;5.05;1.50;;;35.80;39.90;;;;;;6279071;28;20059;-78
2022/08/17 14:23:37;;;;;;;2.40;1.50;;;36.20;39.60;;;;;;6279050;28;20049;-79
2022/08/17 14:26:40;;;;;;;2.33;1.35;;;36.50;39.30;;;;;;6281353;28;20052;-79
2022/08/17 14:29:42;;;;;;;2.22;1.60;;;36.80;38.80;;;;;;6277981;28;20057;-80
2022/08/17 14:32:47;;;;;;;2.63;1.58;;;36.90;38.30;;;;;;6280321;28;20049;-79
2022/08/17 14:35:52;;;;;;;1.70;1.40;;;37.20;38.40;;;;;;6279104;28;20100;-79
2022/08/17 14:38:54;;;;;;;4.40;1.77;;;37.50;37.60;;;;;;6279113;28;20055;-79
2022/08/17 14:41:58;;;;;;;4.90;1.20;;;37.80;37.70;;;;;;6277895;28;20049;-79
2022/08/17 14:45:03;;;;;;;3.00;1.45;;;38.00;37.60;;;;;;6279037;28;20055;-79
2022/08/17 14:48:06;;;;;;;3.40;1.05;;;38.10;37.00;;;;;;6278149;28;20095;-79
2022/08/17 14:51:08;;;;;;;8.38;1.52;;;38.20;36.50;;;;;;6277824;28;20044;-80
2022/08/17 14:54:10;;;;;;;1.95;1.55;;;38.20;36.50;;;;;;6276911;28;20044;-81
2022/08/17 14:57:16;;;;;;;2.63;1.15;;;38.30;36.30;;;;;;6277995;28;20059;-81
2022/08/17 15:00:18;;;;;;;4.00;1.27;;;38.30;35.90;;;;;;6278210;28;20055;-80
2022/08/17 15:03:19;;;;;;;6.75;1.60;;;38.50;35.80;;;;;;6277255;28;20050;-81
2022/08/17 15:06:23;;;;;;;5.10;1.55;;;38.50;35.90;;;;;;6276160;28;20115;-80
2022/08/17 15:09:25;;;;;;;5.75;1.40;;;38.30;36.10;;;;;;6276121;28;20053;-80
2022/08/17 15:12:29;;;;;;;2.80;1.55;;;38.10;36.40;;;;;;6277009;28;20049;-81
2022/08/17 15:15:31;;;;;;;7.22;1.52;;;37.90;36.60;;;;;;6277343;28;20131;-81
2022/08/17 15:18:32;;;;;;;2.50;1.50;;;37.70;36.70;;;;;;6278310;28;20051;-81
2022/08/17 15:21:35;;;;;;;6.55;1.88;;;37.50;36.80;;;;;;6278678;28;20052;-79
2022/08/17 15:24:37;;;;;;;1.92;1.30;;;37.30;37.40;;;;;;6304802;28;20044;-79
2022/08/17 15:27:40;;;;;;;5.35;3.20;;;37.00;37.10;;;;;;6304502;28;20059;-79
2022/08/17 15:30:43;;;;;;;3.85;1.48;;;36.60;37.70;;;;;;6302575;28;20048;-80
2022/08/17 15:33:45;;;;;;;4.13;1.80;;;36.40;38.00;;;;;;6301794;28;20041;-81
2022/08/17 15:36:47;;;;;;;2.50;1.50;;;36.20;38.20;;;;;;6302939;28;20055;-80
2022/08/17 15:39:48;;;;;;;1.92;1.33;;;36.00;38.30;;;;;;6279971;28;20048;-80
2022/08/17 15:42:52;;;;;;;3.13;1.20;;;35.80;38.80;;;;;;6277042;28;20056;-81
2022/08/17 15:45:59;;;;;;;3.33;1.50;;;35.60;38.80;;;;;;6276645;28;20056;-81
2022/08/17 15:49:00;;;;;;;;;;;35.40;38.90;;;;;;6277583;28;20040;-80
2022/08/17 15:52:15;;;;;;;2.53;1.23;;;35.10;39.30;;;;;;6278013;28;20010;-80
2022/08/17 15:55:19;;;;;;;5.78;2.15;;;34.90;40.40;;;;;;6278242;28;20041;-81
2022/08/17 15:58:22;;;;;;;4.63;1.80;;;34.80;40.60;;;;;;6277358;28;20044;-81
2022/08/17 16:01:26;;;;;;;5.10;1.83;;;34.60;40.00;;;;;;6276596;28;20053;-80
2022/08/17 16:04:28;;;;;;;3.97;1.73;;;34.40;40.10;;;;;;6276303;28;20049;-79
2022/08/17 16:07:30;;;;;;;5.10;2.13;;;34.20;40.40;;;;;;6276364;28;20052;-80
2022/08/17 16:10:32;;;;;;;5.82;1.80;;;34.10;40.80;;;;;;6285826;28;20068;-79
2022/08/17 16:13:35;;;;;;;5.38;1.75;;;34.00;41.30;;;;;;6277446;28;20412;-81
2022/08/17 16:16:37;;;;;;;2.65;1.83;;;33.80;42.00;;;;;;6277370;28;20051;-80
2022/08/17 16:19:40;;;;;;;2.97;1.85;;;33.70;42.00;;;;;;6277247;28;20500;-80
2022/08/17 16:22:44;;;;;;;4.57;1.77;;;33.40;42.20;;;;;;6279821;28;20045;-80
2022/08/17 16:25:46;;;;;;;6.40;2.30;;;33.20;42.80;;;;;;6281935;28;20052;-79
2022/08/17 16:28:50;;;;;;;7.45;2.70;;;33.10;42.90;;;;;;6282064;28;20044;-80
2022/08/17 16:31:52;;;;;;;4.82;2.53;;;32.90;43.00;;;;;;6281302;28;20045;-80
2022/08/17 16:34:53;;;;;;;7.00;1.77;;;32.90;43.30;;;;;;6281389;28;20045;-79
2022/08/17 16:37:57;;;;;;;2.70;1.58;;;32.70;43.60;;;;;;6281284;28;20045;-78
2022/08/17 16:40:58;;;;;;;3.60;1.70;;;32.60;43.70;;;;;;6281259;28;20055;-80
2022/08/17 16:44:02;;;;;;;3.65;1.90;;;32.40;44.30;;;;;;6281951;28;20048;-79